AirNav   Everest Fuels
 
 679 users online  

81MO Bates County Hospital Heliport
Butler, Missouri, USA

GOING TO BUTLER?


FAA INFORMATION EFFECTIVE 21 MAY 2020

Location

FAA Identifier: 81MO
Lat/Long: 38-14-54.0000N 094-20-32.0000W
38-14.900000N 094-20.533333W
38.2483333,-94.3422222
(estimated)
Elevation: 820 ft. / 250 m (estimated)
Variation: 05E (1985)
Time zone: UTC -5 (UTC -6 during Standard Time)
Zip code: 64730

Heliport Operations

Heliport use: Private use, MEDICAL.
Activation date: 04/1983
Control tower: no
ARTCC: KANSAS CITY CENTER
FSS: COLUMBIA FLIGHT SERVICE STATION
Attendance: CONTINUOUS
Wind indicator: lighted
Segmented circle: no

Nearby radio navigation aids

VOR radial/distance  VOR name  Freq  Var
BUMr095/7.0BUTLER VORTAC115.9007E

 
NDB name  Hdg/Dist  Freq  Var  ID
GOLDEN VALLEY257/31.738801EGLY --. .-.. -.--

Heliport Services

Runway Information

Helipad H1

Dimensions: 60 x 60 ft. / 18 x 18 m
Surface: asphalt/concrete
Runway edge lights: PERI
Latitude: 38-14.900000N
Longitude: 094-20.533333W
Elevation: 820.0 ft.
Traffic pattern: leftleft

Heliport Ownership and Management from official FAA records

Ownership: Publicly-owned
Owner: BATES COUNTY HOSPITAL
615 W NURSERY
BUTLER, MO 64730
Phone 660-200-7000
Manager: JOHN P. BUSTLE MD FAAFT
P.O. BOX 370
BUTLER, MO 64730
Phone 660-200-7000

Additional Remarks

A52-H1 BLDG 60 FT NW; PLINES 90 FT SOUTH; 60 FT LGTD COMM TWR 90 FT NW; 480 FT TWR 2000 FT SOUTHWEST OF HELI.
FOR CD CTC KANSAS CITY ARTCC AT 913-254-8508.

Instrument Procedures

There are no published instrument procedures at 81MO.

Some nearby airports with instrument procedures:

KBUM - Butler Memorial Airport (2 nm N)
KLRY - Lawrence Smith Memorial Airport (22 nm N)
KNVD - Nevada Municipal Airport (24 nm S)
KGLY - Clinton Regional Airport (32 nm E)
K81 - Miami County Airport (32 nm NW)
 
Loc | Ops | Rwys | IFR | FBO | Links
Com | Nav | Svcs | Stats | Notes
Area around 81MO (Bates County Hospital Heliport)
 
Road maps at: MapQuest Bing Google
 
Aerial photo
No photo
 
Sectional chart

 
Airport distance calculator
Flying to Bates County Hospital Heliport? Find the distance to fly.

From to 81MO

Sunrise and sunset
Times for 29-May-2020
 Local
(UTC-5)
 Zulu
(UTC)
Morning civil twilight05:2710:27
Sunrise05:5810:58
Sunset20:3201:32
Evening civil twilight21:0302:03

Current date and time
Zulu (UTC)  30-May-2020 03:52:19
Local (UTC-5)  29-May-2020 22:52:19
 
METAR
KLRY 
22nm N 
300335Z AUTO 00000KT 10SM CLR 15/12 A3020 RMK AO2
KOJC 
40nm NW 
300253Z AUTO 00000KT 10SM CLR 19/09 A3018 RMK AO2 SLP212 T01890094 53012
KRCM 
41nm NE 
300335Z AUTO 00000KT 10SM 17/12 A3017 RMK AO2
KIXD 
43nm NW 
300253Z 00000KT 10SM CLR 18/11 A3019 RMK AO2 SLP215 T01830106 53012
KLXT 
43nm N 
300253Z AUTO 00000KT 10SM CLR 21/08 A3018 RMK AO2 SLP215 T02060078 53013
TAF
KIXD 
43nm NW 
291720Z 2918/3018 01010G18KT P6SM SKC FM300100 VRB04KT P6SM SKC FM301500 11006KT P6SM SCT120
KSZL 
47nm NE 
292040Z 2920/3101 35012G18KT 9999 SCT070 QNH3012INS WND 03009KT AFT 3001 TX24/2920Z TN14/3010Z LAST NO AMDS AFT 3005 NEXT 3111
NOTAMs
Click for the latest NOTAMs
NOTAMs are issued by the DoD/FAA and will open in a separate window not controlled by AirNav.

 

 
 

Would you like to see your business listed on this page?

 If your business provides an interesting product or service to pilots, flight crews, aircraft, or users of the Bates County Hospital Heliport, you should consider listing it here.  To start the listing process, click on the button below
 
Add a business
 

Other Pages about Bates County Hospital Heliport

Update a link
 
Copyright © AirNav, LLC. All rights reserved. Privacy Policy  Contact